sensor_id;sensor_type;location;lat;lon;timestamp;temperature;humidity
34985;DHT22;21190;58.750;17.004;2023-05-27T00:00:34;8.00;99.90
34985;DHT22;21190;58.750;17.004;2023-05-27T00:03:01;8.00;99.90
34985;DHT22;21190;58.750;17.004;2023-05-27T00:05:28;7.90;99.90
34985;DHT22;21190;58.750;17.004;2023-05-27T00:07:55;7.90;99.90
34985;DHT22;21190;58.750;17.004;2023-05-27T00:10:22;7.80;99.90
34985;DHT22;21190;58.750;17.004;2023-05-27T00:12:49;7.80;99.90
34985;DHT22;21190;58.750;17.004;2023-05-27T00:15:16;7.80;99.90
34985;DHT22;21190;58.750;17.004;2023-05-27T00:17:44;7.70;99.90
34985;DHT22;21190;58.750;17.004;2023-05-27T00:20:11;7.70;99.90
34985;DHT22;21190;58.750;17.004;2023-05-27T00:22:39;7.70;99.90
34985;DHT22;21190;58.750;17.004;2023-05-27T00:25:07;7.70;99.90
34985;DHT22;21190;58.750;17.004;2023-05-27T00:27:34;7.60;99.90
34985;DHT22;21190;58.750;17.004;2023-05-27T00:30:01;7.50;99.90
34985;DHT22;21190;58.750;17.004;2023-05-27T00:32:29;7.40;99.90
34985;DHT22;21190;58.750;17.004;2023-05-27T00:34:56;7.30;99.90
34985;DHT22;21190;58.750;17.004;2023-05-27T00:37:23;7.20;99.90
34985;DHT22;21190;58.750;17.004;2023-05-27T00:39:50;7.10;99.90
34985;DHT22;21190;58.750;17.004;2023-05-27T00:42:17;7.20;99.90
34985;DHT22;21190;58.750;17.004;2023-05-27T00:44:44;7.20;99.90
34985;DHT22;21190;58.750;17.004;2023-05-27T00:47:11;7.20;99.90
34985;DHT22;21190;58.750;17.004;2023-05-27T00:49:38;7.10;99.90
34985;DHT22;21190;58.750;17.004;2023-05-27T00:52:05;7.10;99.90
34985;DHT22;21190;58.750;17.004;2023-05-27T00:54:32;7.00;99.90
34985;DHT22;21190;58.750;17.004;2023-05-27T00:57:00;6.90;99.90
34985;DHT22;21190;58.750;17.004;2023-05-27T00:59:29;7.00;99.90
34985;DHT22;21190;58.750;17.004;2023-05-27T01:01:56;6.90;99.90
34985;DHT22;21190;58.750;17.004;2023-05-27T01:04:24;6.90;99.90
34985;DHT22;21190;58.750;17.004;2023-05-27T01:12:20;6.90;99.90
34985;DHT22;21190;58.750;17.004;2023-05-27T01:14:51;6.80;99.90
34985;DHT22;21190;58.750;17.004;2023-05-27T01:17:21;6.80;99.90
34985;DHT22;21190;58.750;17.004;2023-05-27T01:19:50;6.70;99.90
34985;DHT22;21190;58.750;17.004;2023-05-27T01:22:19;6.60;99.90
34985;DHT22;21190;58.750;17.004;2023-05-27T01:24:46;6.50;99.90
34985;DHT22;21190;58.750;17.004;2023-05-27T01:27:13;6.50;99.90
34985;DHT22;21190;58.750;17.004;2023-05-27T01:29:42;6.50;99.90
34985;DHT22;21190;58.750;17.004;2023-05-27T01:32:25;6.50;99.90
34985;DHT22;21190;58.750;17.004;2023-05-27T01:35:02;6.50;99.90
34985;DHT22;21190;58.750;17.004;2023-05-27T01:37:35;6.50;99.90
34985;DHT22;21190;58.750;17.004;2023-05-27T01:40:05;6.50;99.90
34985;DHT22;21190;58.750;17.004;2023-05-27T01:42:36;6.40;99.90
34985;DHT22;21190;58.750;17.004;2023-05-27T01:45:06;6.30;99.90
34985;DHT22;21190;58.750;17.004;2023-05-27T01:47:34;6.20;99.90
34985;DHT22;21190;58.750;17.004;2023-05-27T01:50:02;6.10;99.90
34985;DHT22;21190;58.750;17.004;2023-05-27T01:52:29;6.10;99.90
34985;DHT22;21190;58.750;17.004;2023-05-27T01:54:56;5.90;99.90
34985;DHT22;21190;58.750;17.004;2023-05-27T01:57:25;5.90;99.90
34985;DHT22;21190;58.750;17.004;2023-05-27T01:59:52;6.00;99.90
34985;DHT22;21190;58.750;17.004;2023-05-27T02:02:19;5.90;99.90
34985;DHT22;21190;58.750;17.004;2023-05-27T02:04:46;5.90;99.90
34985;DHT22;21190;58.750;17.004;2023-05-27T02:07:13;5.90;99.90
34985;DHT22;21190;58.750;17.004;2023-05-27T02:09:40;5.90;99.90
34985;DHT22;21190;58.750;17.004;2023-05-27T02:12:07;5.90;99.90
34985;DHT22;21190;58.750;17.004;2023-05-27T02:14:34;5.90;99.90
34985;DHT22;21190;58.750;17.004;2023-05-27T02:17:05;5.90;99.90
34985;DHT22;21190;58.750;17.004;2023-05-27T02:19:33;5.90;99.90
34985;DHT22;21190;58.750;17.004;2023-05-27T02:22:00;5.90;99.90
34985;DHT22;21190;58.750;17.004;2023-05-27T02:24:27;5.80;99.90
34985;DHT22;21190;58.750;17.004;2023-05-27T02:26:54;5.70;99.90
34985;DHT22;21190;58.750;17.004;2023-05-27T02:29:21;5.60;99.90
34985;DHT22;21190;58.750;17.004;2023-05-27T02:31:48;5.60;99.90
34985;DHT22;21190;58.750;17.004;2023-05-27T02:34:15;5.60;99.90
34985;DHT22;21190;58.750;17.004;2023-05-27T02:36:42;5.60;99.90
34985;DHT22;21190;58.750;17.004;2023-05-27T02:39:09;5.60;99.90
34985;DHT22;21190;58.750;17.004;2023-05-27T02:41:37;5.50;99.90
34985;DHT22;21190;58.750;17.004;2023-05-27T02:44:05;5.60;99.90
34985;DHT22;21190;58.750;17.004;2023-05-27T02:46:32;5.50;99.90
34985;DHT22;21190;58.750;17.004;2023-05-27T02:48:59;5.60;99.90
34985;DHT22;21190;58.750;17.004;2023-05-27T02:51:28;5.60;99.90
34985;DHT22;21190;58.750;17.004;2023-05-27T02:53:55;5.50;99.90
34985;DHT22;21190;58.750;17.004;2023-05-27T02:56:22;5.40;99.90
34985;DHT22;21190;58.750;17.004;2023-05-27T02:58:49;5.40;99.90
34985;DHT22;21190;58.750;17.004;2023-05-27T03:01:16;5.40;99.90
34985;DHT22;21190;58.750;17.004;2023-05-27T03:03:43;5.30;99.90
34985;DHT22;21190;58.750;17.004;2023-05-27T03:06:10;5.20;99.90
34985;DHT22;21190;58.750;17.004;2023-05-27T03:08:37;5.20;99.90
34985;DHT22;21190;58.750;17.004;2023-05-27T03:11:04;5.20;99.90
34985;DHT22;21190;58.750;17.004;2023-05-27T03:13:31;5.10;99.90
34985;DHT22;21190;58.750;17.004;2023-05-27T03:15:58;5.10;99.90
34985;DHT22;21190;58.750;17.004;2023-05-27T03:18:25;5.10;99.90
34985;DHT22;21190;58.750;17.004;2023-05-27T03:20:52;5.20;99.90
34985;DHT22;21190;58.750;17.004;2023-05-27T03:23:19;5.30;99.90
34985;DHT22;21190;58.750;17.004;2023-05-27T03:25:46;5.30;99.90
34985;DHT22;21190;58.750;17.004;2023-05-27T03:28:13;5.40;99.90
34985;DHT22;21190;58.750;17.004;2023-05-27T03:30:41;5.50;99.90
34985;DHT22;21190;58.750;17.004;2023-05-27T03:33:10;5.50;99.90
34985;DHT22;21190;58.750;17.004;2023-05-27T03:35:37;5.60;99.90
34985;DHT22;21190;58.750;17.004;2023-05-27T03:38:04;5.70;99.90
34985;DHT22;21190;58.750;17.004;2023-05-27T03:40:31;5.80;99.90
34985;DHT22;21190;58.750;17.004;2023-05-27T03:42:58;5.90;99.90
34985;DHT22;21190;58.750;17.004;2023-05-27T03:45:25;5.90;99.90
34985;DHT22;21190;58.750;17.004;2023-05-27T03:47:53;6.00;99.90
34985;DHT22;21190;58.750;17.004;2023-05-27T03:50:20;6.10;99.90
34985;DHT22;21190;58.750;17.004;2023-05-27T03:52:47;6.20;99.90
34985;DHT22;21190;58.750;17.004;2023-05-27T03:55:14;6.30;99.90
34985;DHT22;21190;58.750;17.004;2023-05-27T03:57:43;6.40;99.90
34985;DHT22;21190;58.750;17.004;2023-05-27T04:00:10;6.40;99.90
34985;DHT22;21190;58.750;17.004;2023-05-27T04:02:41;6.50;99.90
34985;DHT22;21190;58.750;17.004;2023-05-27T04:05:08;6.60;99.90
34985;DHT22;21190;58.750;17.004;2023-05-27T04:07:35;6.70;99.90
34985;DHT22;21190;58.750;17.004;2023-05-27T04:10:02;6.80;99.90
34985;DHT22;21190;58.750;17.004;2023-05-27T04:12:29;6.90;99.90
34985;DHT22;21190;58.750;17.004;2023-05-27T04:14:56;7.00;99.90
34985;DHT22;21190;58.750;17.004;2023-05-27T04:17:24;7.10;99.90
34985;DHT22;21190;58.750;17.004;2023-05-27T04:19:51;7.20;99.90
34985;DHT22;21190;58.750;17.004;2023-05-27T04:22:18;7.30;99.90
34985;DHT22;21190;58.750;17.004;2023-05-27T04:24:45;7.40;99.90
34985;DHT22;21190;58.750;17.004;2023-05-27T04:27:11;7.40;99.90
34985;DHT22;21190;58.750;17.004;2023-05-27T04:29:39;7.50;99.90
34985;DHT22;21190;58.750;17.004;2023-05-27T04:32:08;7.60;99.90
34985;DHT22;21190;58.750;17.004;2023-05-27T04:34:36;7.70;99.90
34985;DHT22;21190;58.750;17.004;2023-05-27T04:37:03;7.80;99.90
34985;DHT22;21190;58.750;17.004;2023-05-27T04:39:30;7.90;99.90
34985;DHT22;21190;58.750;17.004;2023-05-27T04:41:57;8.00;99.90
34985;DHT22;21190;58.750;17.004;2023-05-27T04:44:24;8.10;99.90
34985;DHT22;21190;58.750;17.004;2023-05-27T04:46:54;8.20;99.90
34985;DHT22;21190;58.750;17.004;2023-05-27T04:49:21;8.30;99.90
34985;DHT22;21190;58.750;17.004;2023-05-27T04:51:49;8.40;99.90
34985;DHT22;21190;58.750;17.004;2023-05-27T04:54:16;8.60;99.90
34985;DHT22;21190;58.750;17.004;2023-05-27T04:56:43;8.70;99.90
34985;DHT22;21190;58.750;17.004;2023-05-27T04:59:10;8.90;99.90
34985;DHT22;21190;58.750;17.004;2023-05-27T05:01:43;9.00;99.90
34985;DHT22;21190;58.750;17.004;2023-05-27T05:04:37;9.10;99.90
34985;DHT22;21190;58.750;17.004;2023-05-27T05:07:04;9.20;99.90
34985;DHT22;21190;58.750;17.004;2023-05-27T05:09:31;9.30;99.90
34985;DHT22;21190;58.750;17.004;2023-05-27T05:11:58;9.40;99.90
34985;DHT22;21190;58.750;17.004;2023-05-27T05:14:25;9.50;99.90
34985;DHT22;21190;58.750;17.004;2023-05-27T05:16:52;9.60;99.90
34985;DHT22;21190;58.750;17.004;2023-05-27T05:19:19;9.70;99.90
34985;DHT22;21190;58.750;17.004;2023-05-27T05:21:46;9.80;99.90
34985;DHT22;21190;58.750;17.004;2023-05-27T05:24:13;9.90;99.90
34985;DHT22;21190;58.750;17.004;2023-05-27T05:26:40;10.10;99.90
34985;DHT22;21190;58.750;17.004;2023-05-27T05:29:07;10.20;99.90
34985;DHT22;21190;58.750;17.004;2023-05-27T05:31:34;10.40;99.90
34985;DHT22;21190;58.750;17.004;2023-05-27T05:34:01;10.50;99.90
34985;DHT22;21190;58.750;17.004;2023-05-27T05:36:29;10.60;99.90
34985;DHT22;21190;58.750;17.004;2023-05-27T05:38:55;10.60;99.90
34985;DHT22;21190;58.750;17.004;2023-05-27T05:41:22;10.60;99.90
34985;DHT22;21190;58.750;17.004;2023-05-27T05:43:49;10.70;99.90
34985;DHT22;21190;58.750;17.004;2023-05-27T05:46:16;10.70;99.90
34985;DHT22;21190;58.750;17.004;2023-05-27T05:48:43;10.70;99.90
34985;DHT22;21190;58.750;17.004;2023-05-27T05:51:10;10.80;99.90
34985;DHT22;21190;58.750;17.004;2023-05-27T05:53:37;10.80;99.90
34985;DHT22;21190;58.750;17.004;2023-05-27T05:56:04;10.80;99.90
34985;DHT22;21190;58.750;17.004;2023-05-27T05:58:31;10.80;99.90
34985;DHT22;21190;58.750;17.004;2023-05-27T06:00:58;10.90;99.90
34985;DHT22;21190;58.750;17.004;2023-05-27T06:03:25;11.10;99.90
34985;DHT22;21190;58.750;17.004;2023-05-27T06:05:52;11.10;99.90
34985;DHT22;21190;58.750;17.004;2023-05-27T06:08:19;11.20;99.90
34985;DHT22;21190;58.750;17.004;2023-05-27T06:10:46;11.30;99.90
34985;DHT22;21190;58.750;17.004;2023-05-27T06:13:13;11.30;99.90
34985;DHT22;21190;58.750;17.004;2023-05-27T06:15:40;11.50;99.90
34985;DHT22;21190;58.750;17.004;2023-05-27T06:18:07;11.60;99.90
34985;DHT22;21190;58.750;17.004;2023-05-27T06:20:34;11.70;99.90
34985;DHT22;21190;58.750;17.004;2023-05-27T06:23:01;11.80;99.90
34985;DHT22;21190;58.750;17.004;2023-05-27T06:25:28;11.90;99.90
34985;DHT22;21190;58.750;17.004;2023-05-27T06:27:55;12.00;99.90
34985;DHT22;21190;58.750;17.004;2023-05-27T06:30:22;12.10;99.90
34985;DHT22;21190;58.750;17.004;2023-05-27T06:32:49;12.20;99.90
34985;DHT22;21190;58.750;17.004;2023-05-27T06:35:16;12.30;99.90
34985;DHT22;21190;58.750;17.004;2023-05-27T06:37:43;12.40;99.90
34985;DHT22;21190;58.750;17.004;2023-05-27T06:40:13;12.40;99.90
34985;DHT22;21190;58.750;17.004;2023-05-27T06:42:40;12.40;99.90
34985;DHT22;21190;58.750;17.004;2023-05-27T06:45:08;12.50;99.90
34985;DHT22;21190;58.750;17.004;2023-05-27T06:47:35;12.50;99.90
34985;DHT22;21190;58.750;17.004;2023-05-27T06:50:02;12.50;99.90
34985;DHT22;21190;58.750;17.004;2023-05-27T06:52:29;12.50;99.90
34985;DHT22;21190;58.750;17.004;2023-05-27T06:54:56;12.50;99.90
34985;DHT22;21190;58.750;17.004;2023-05-27T06:57:23;12.50;99.90
34985;DHT22;21190;58.750;17.004;2023-05-27T06:59:50;12.60;99.90
34985;DHT22;21190;58.750;17.004;2023-05-27T07:02:17;12.60;99.90
34985;DHT22;21190;58.750;17.004;2023-05-27T07:04:44;12.60;99.90
34985;DHT22;21190;58.750;17.004;2023-05-27T07:07:11;12.70;99.90
34985;DHT22;21190;58.750;17.004;2023-05-27T07:09:38;12.80;99.90
34985;DHT22;21190;58.750;17.004;2023-05-27T07:12:05;12.80;99.90
34985;DHT22;21190;58.750;17.004;2023-05-27T07:14:35;12.90;99.90
34985;DHT22;21190;58.750;17.004;2023-05-27T07:17:02;13.00;99.90
34985;DHT22;21190;58.750;17.004;2023-05-27T07:19:29;13.00;99.90
34985;DHT22;21190;58.750;17.004;2023-05-27T07:21:56;13.10;99.90
34985;DHT22;21190;58.750;17.004;2023-05-27T07:24:24;13.10;99.90
34985;DHT22;21190;58.750;17.004;2023-05-27T07:26:51;13.20;99.90
34985;DHT22;21190;58.750;17.004;2023-05-27T07:29:17;13.30;99.90
34985;DHT22;21190;58.750;17.004;2023-05-27T07:31:48;13.30;99.90
34985;DHT22;21190;58.750;17.004;2023-05-27T07:34:15;13.40;99.90
34985;DHT22;21190;58.750;17.004;2023-05-27T07:36:42;13.50;99.90
34985;DHT22;21190;58.750;17.004;2023-05-27T07:39:09;13.60;99.90
34985;DHT22;21190;58.750;17.004;2023-05-27T07:41:36;13.70;99.90
34985;DHT22;21190;58.750;17.004;2023-05-27T07:44:03;13.70;99.90
34985;DHT22;21190;58.750;17.004;2023-05-27T07:46:31;13.90;99.90
34985;DHT22;21190;58.750;17.004;2023-05-27T07:48:59;13.90;99.90
34985;DHT22;21190;58.750;17.004;2023-05-27T07:51:26;13.90;99.90
34985;DHT22;21190;58.750;17.004;2023-05-27T07:53:53;14.00;99.90
34985;DHT22;21190;58.750;17.004;2023-05-27T07:56:21;14.10;99.90
34985;DHT22;21190;58.750;17.004;2023-05-27T07:58:48;14.10;99.90
34985;DHT22;21190;58.750;17.004;2023-05-27T08:01:15;14.20;99.90
34985;DHT22;21190;58.750;17.004;2023-05-27T08:03:42;14.40;99.90
34985;DHT22;21190;58.750;17.004;2023-05-27T08:06:09;14.50;99.90
34985;DHT22;21190;58.750;17.004;2023-05-27T08:08:39;14.60;99.90
34985;DHT22;21190;58.750;17.004;2023-05-27T08:11:06;14.50;99.90
34985;DHT22;21190;58.750;17.004;2023-05-27T08:13:33;14.60;99.90
34985;DHT22;21190;58.750;17.004;2023-05-27T08:16:00;14.70;99.90
34985;DHT22;21190;58.750;17.004;2023-05-27T08:18:27;14.70;99.90
34985;DHT22;21190;58.750;17.004;2023-05-27T08:20:54;14.70;99.90
34985;DHT22;21190;58.750;17.004;2023-05-27T08:23:21;14.80;99.90
34985;DHT22;21190;58.750;17.004;2023-05-27T08:25:48;15.00;99.90
34985;DHT22;21190;58.750;17.004;2023-05-27T08:28:15;15.10;99.90
34985;DHT22;21190;58.750;17.004;2023-05-27T08:30:43;15.20;99.90
34985;DHT22;21190;58.750;17.004;2023-05-27T08:33:10;15.20;99.90
34985;DHT22;21190;58.750;17.004;2023-05-27T08:35:37;15.30;99.90
34985;DHT22;21190;58.750;17.004;2023-05-27T08:38:04;15.30;99.90
34985;DHT22;21190;58.750;17.004;2023-05-27T08:40:31;15.40;99.90
34985;DHT22;21190;58.750;17.004;2023-05-27T08:42:58;15.50;99.90
34985;DHT22;21190;58.750;17.004;2023-05-27T08:45:25;15.60;99.90
34985;DHT22;21190;58.750;17.004;2023-05-27T08:47:53;15.70;99.90
34985;DHT22;21190;58.750;17.004;2023-05-27T08:50:20;15.90;99.90
34985;DHT22;21190;58.750;17.004;2023-05-27T08:52:52;16.00;99.90
34985;DHT22;21190;58.750;17.004;2023-05-27T08:55:20;15.90;99.90
34985;DHT22;21190;58.750;17.004;2023-05-27T08:57:54;15.90;99.90
34985;DHT22;21190;58.750;17.004;2023-05-27T09:00:23;16.00;99.90
34985;DHT22;21190;58.750;17.004;2023-05-27T09:02:50;16.10;99.90
34985;DHT22;21190;58.750;17.004;2023-05-27T09:05:18;16.20;98.60
34985;DHT22;21190;58.750;17.004;2023-05-27T09:07:46;16.30;98.60
34985;DHT22;21190;58.750;17.004;2023-05-27T09:10:13;16.30;98.30
34985;DHT22;21190;58.750;17.004;2023-05-27T09:12:45;16.50;98.10
34985;DHT22;21190;58.750;17.004;2023-05-27T09:15:13;16.50;97.70
34985;DHT22;21190;58.750;17.004;2023-05-27T09:17:43;16.60;95.20
34985;DHT22;21190;58.750;17.004;2023-05-27T09:20:11;16.50;95.50
34985;DHT22;21190;58.750;17.004;2023-05-27T09:22:40;16.50;96.60
34985;DHT22;21190;58.750;17.004;2023-05-27T09:25:08;16.70;95.40
34985;DHT22;21190;58.750;17.004;2023-05-27T09:27:38;16.80;94.30
34985;DHT22;21190;58.750;17.004;2023-05-27T09:30:08;16.90;93.90
34985;DHT22;21190;58.750;17.004;2023-05-27T09:32:36;17.00;93.30
34985;DHT22;21190;58.750;17.004;2023-05-27T09:35:05;17.00;92.40
34985;DHT22;21190;58.750;17.004;2023-05-27T09:37:34;17.10;90.50
34985;DHT22;21190;58.750;17.004;2023-05-27T09:40:12;17.10;90.70
34985;DHT22;21190;58.750;17.004;2023-05-27T09:42:48;17.20;90.80
34985;DHT22;21190;58.750;17.004;2023-05-27T09:45:20;17.20;91.10
34985;DHT22;21190;58.750;17.004;2023-05-27T09:47:49;17.20;89.20
34985;DHT22;21190;58.750;17.004;2023-05-27T09:50:19;17.20;88.60
34985;DHT22;21190;58.750;17.004;2023-05-27T09:52:48;17.20;87.60
34985;DHT22;21190;58.750;17.004;2023-05-27T09:55:19;17.40;86.50
34985;DHT22;21190;58.750;17.004;2023-05-27T09:57:47;17.50;86.30
34985;DHT22;21190;58.750;17.004;2023-05-27T10:00:14;17.60;86.30
34985;DHT22;21190;58.750;17.004;2023-05-27T10:02:47;17.60;87.40
34985;DHT22;21190;58.750;17.004;2023-05-27T10:05:16;17.60;87.90
34985;DHT22;21190;58.750;17.004;2023-05-27T10:07:45;17.70;87.30
34985;DHT22;21190;58.750;17.004;2023-05-27T10:10:32;17.70;86.30
34985;DHT22;21190;58.750;17.004;2023-05-27T10:13:00;17.60;85.30
34985;DHT22;21190;58.750;17.004;2023-05-27T10:15:29;17.60;85.10
34985;DHT22;21190;58.750;17.004;2023-05-27T10:18:04;17.70;82.90
34985;DHT22;21190;58.750;17.004;2023-05-27T10:20:39;17.80;84.40
34985;DHT22;21190;58.750;17.004;2023-05-27T10:23:21;17.90;83.50
34985;DHT22;21190;58.750;17.004;2023-05-27T10:25:50;17.90;83.10
34985;DHT22;21190;58.750;17.004;2023-05-27T10:28:34;17.80;81.30
34985;DHT22;21190;58.750;17.004;2023-05-27T10:31:17;17.90;80.90
34985;DHT22;21190;58.750;17.004;2023-05-27T10:33:46;17.80;79.40
34985;DHT22;21190;58.750;17.004;2023-05-27T10:36:27;17.80;80.90
34985;DHT22;21190;58.750;17.004;2023-05-27T10:39:02;17.90;81.50
34985;DHT22;21190;58.750;17.004;2023-05-27T10:41:50;17.90;80.80
34985;DHT22;21190;58.750;17.004;2023-05-27T10:44:31;18.00;81.10
34985;DHT22;21190;58.750;17.004;2023-05-27T10:47:03;18.00;78.90
34985;DHT22;21190;58.750;17.004;2023-05-27T10:49:35;18.10;80.10
34985;DHT22;21190;58.750;17.004;2023-05-27T10:52:10;18.20;80.80
34985;DHT22;21190;58.750;17.004;2023-05-27T10:54:43;18.30;80.00
34985;DHT22;21190;58.750;17.004;2023-05-27T10:57:13;18.40;81.20
34985;DHT22;21190;58.750;17.004;2023-05-27T10:59:53;18.50;80.00
34985;DHT22;21190;58.750;17.004;2023-05-27T11:02:29;18.60;78.30
34985;DHT22;21190;58.750;17.004;2023-05-27T11:04:59;18.60;77.80
34985;DHT22;21190;58.750;17.004;2023-05-27T11:07:27;18.70;79.10
34985;DHT22;21190;58.750;17.004;2023-05-27T11:09:55;18.70;78.40
34985;DHT22;21190;58.750;17.004;2023-05-27T11:12:23;18.90;78.80
34985;DHT22;21190;58.750;17.004;2023-05-27T11:14:55;18.90;77.10
34985;DHT22;21190;58.750;17.004;2023-05-27T11:17:23;18.90;77.70
34985;DHT22;21190;58.750;17.004;2023-05-27T11:19:50;19.00;78.90
34985;DHT22;21190;58.750;17.004;2023-05-27T11:22:18;19.00;76.20
34985;DHT22;21190;58.750;17.004;2023-05-27T11:24:58;19.10;77.30
34985;DHT22;21190;58.750;17.004;2023-05-27T11:27:33;19.20;76.10
34985;DHT22;21190;58.750;17.004;2023-05-27T11:30:05;19.20;77.50
34985;DHT22;21190;58.750;17.004;2023-05-27T11:32:34;19.30;76.00
34985;DHT22;21190;58.750;17.004;2023-05-27T11:35:02;19.30;74.40
34985;DHT22;21190;58.750;17.004;2023-05-27T11:37:34;19.30;76.20
34985;DHT22;21190;58.750;17.004;2023-05-27T11:40:01;19.30;75.50
34985;DHT22;21190;58.750;17.004;2023-05-27T11:42:29;19.40;76.20
34985;DHT22;21190;58.750;17.004;2023-05-27T11:44:59;19.50;74.30
34985;DHT22;21190;58.750;17.004;2023-05-27T11:47:26;19.50;75.00
34985;DHT22;21190;58.750;17.004;2023-05-27T11:49:53;19.60;73.50
34985;DHT22;21190;58.750;17.004;2023-05-27T11:52:24;19.60;73.00
34985;DHT22;21190;58.750;17.004;2023-05-27T11:54:52;19.70;73.90
34985;DHT22;21190;58.750;17.004;2023-05-27T11:57:24;19.70;73.30
34985;DHT22;21190;58.750;17.004;2023-05-27T11:59:51;19.60;71.90
34985;DHT22;21190;58.750;17.004;2023-05-27T12:02:18;19.60;72.40
34985;DHT22;21190;58.750;17.004;2023-05-27T12:04:48;19.90;74.20
34985;DHT22;21190;58.750;17.004;2023-05-27T12:07:15;19.90;71.80
34985;DHT22;21190;58.750;17.004;2023-05-27T12:09:47;19.90;72.70
34985;DHT22;21190;58.750;17.004;2023-05-27T12:12:18;19.90;73.20
34985;DHT22;21190;58.750;17.004;2023-05-27T12:14:45;19.90;77.80
34985;DHT22;21190;58.750;17.004;2023-05-27T12:17:12;19.90;88.40
34985;DHT22;21190;58.750;17.004;2023-05-27T12:19:38;19.90;78.00
34985;DHT22;21190;58.750;17.004;2023-05-27T12:22:05;19.80;88.50
34985;DHT22;21190;58.750;17.004;2023-05-27T12:24:32;19.60;90.50
34985;DHT22;21190;58.750;17.004;2023-05-27T12:27:01;19.70;90.70
34985;DHT22;21190;58.750;17.004;2023-05-27T12:29:28;19.80;91.70
34985;DHT22;21190;58.750;17.004;2023-05-27T12:31:57;19.80;91.20
34985;DHT22;21190;58.750;17.004;2023-05-27T12:34:24;19.80;91.20
34985;DHT22;21190;58.750;17.004;2023-05-27T12:36:52;19.80;90.30
34985;DHT22;21190;58.750;17.004;2023-05-27T12:39:19;19.90;90.20
34985;DHT22;21190;58.750;17.004;2023-05-27T12:41:47;19.90;90.20
34985;DHT22;21190;58.750;17.004;2023-05-27T12:44:14;19.90;89.70
34985;DHT22;21190;58.750;17.004;2023-05-27T12:46:42;19.90;90.00
34985;DHT22;21190;58.750;17.004;2023-05-27T12:49:09;19.90;90.20
34985;DHT22;21190;58.750;17.004;2023-05-27T12:51:37;19.90;90.70
34985;DHT22;21190;58.750;17.004;2023-05-27T12:54:05;19.80;91.10
34985;DHT22;21190;58.750;17.004;2023-05-27T12:56:32;19.90;90.70
34985;DHT22;21190;58.750;17.004;2023-05-27T12:58:59;19.90;90.60
34985;DHT22;21190;58.750;17.004;2023-05-27T13:01:26;19.90;90.20
34985;DHT22;21190;58.750;17.004;2023-05-27T13:03:53;19.90;90.40
34985;DHT22;21190;58.750;17.004;2023-05-27T13:06:20;19.90;90.90
34985;DHT22;21190;58.750;17.004;2023-05-27T13:08:47;20.00;90.40
34985;DHT22;21190;58.750;17.004;2023-05-27T13:11:14;20.00;90.80
34985;DHT22;21190;58.750;17.004;2023-05-27T13:13:41;20.00;90.80
34985;DHT22;21190;58.750;17.004;2023-05-27T13:16:08;20.00;91.60
34985;DHT22;21190;58.750;17.004;2023-05-27T13:18:35;20.00;91.90
34985;DHT22;21190;58.750;17.004;2023-05-27T13:21:03;20.00;91.70
34985;DHT22;21190;58.750;17.004;2023-05-27T13:23:30;20.00;91.90
34985;DHT22;21190;58.750;17.004;2023-05-27T13:25:57;20.00;91.50
34985;DHT22;21190;58.750;17.004;2023-05-27T13:28:24;20.00;92.30
34985;DHT22;21190;58.750;17.004;2023-05-27T13:30:51;20.00;92.40
34985;DHT22;21190;58.750;17.004;2023-05-27T13:33:18;20.00;92.60
34985;DHT22;21190;58.750;17.004;2023-05-27T13:35:46;20.00;91.70
34985;DHT22;21190;58.750;17.004;2023-05-27T13:38:12;19.90;92.10
34985;DHT22;21190;58.750;17.004;2023-05-27T13:40:41;19.90;92.10
34985;DHT22;21190;58.750;17.004;2023-05-27T13:43:08;19.80;92.10
34985;DHT22;21190;58.750;17.004;2023-05-27T13:45:35;19.80;92.20
34985;DHT22;21190;58.750;17.004;2023-05-27T13:48:02;19.70;92.40
34985;DHT22;21190;58.750;17.004;2023-05-27T13:50:29;19.80;93.00
34985;DHT22;21190;58.750;17.004;2023-05-27T13:52:58;19.80;93.20
34985;DHT22;21190;58.750;17.004;2023-05-27T13:55:25;19.90;92.90
34985;DHT22;21190;58.750;17.004;2023-05-27T13:57:52;20.00;92.60
34985;DHT22;21190;58.750;17.004;2023-05-27T14:00:19;20.00;92.20
34985;DHT22;21190;58.750;17.004;2023-05-27T14:02:46;20.10;92.00
34985;DHT22;21190;58.750;17.004;2023-05-27T14:05:13;20.10;92.60
34985;DHT22;21190;58.750;17.004;2023-05-27T14:07:41;20.10;92.00
34985;DHT22;21190;58.750;17.004;2023-05-27T14:10:10;20.10;92.70
34985;DHT22;21190;58.750;17.004;2023-05-27T14:12:37;20.00;92.80
34985;DHT22;21190;58.750;17.004;2023-05-27T14:15:05;20.10;92.20
34985;DHT22;21190;58.750;17.004;2023-05-27T14:17:32;20.10;92.80
34985;DHT22;21190;58.750;17.004;2023-05-27T14:19:59;20.10;92.70
34985;DHT22;21190;58.750;17.004;2023-05-27T14:22:26;20.00;92.00
34985;DHT22;21190;58.750;17.004;2023-05-27T14:24:54;20.00;92.30
34985;DHT22;21190;58.750;17.004;2023-05-27T14:27:21;20.00;92.70
34985;DHT22;21190;58.750;17.004;2023-05-27T14:29:48;20.10;92.90
34985;DHT22;21190;58.750;17.004;2023-05-27T14:32:15;20.10;92.50
34985;DHT22;21190;58.750;17.004;2023-05-27T14:34:42;20.20;92.60
34985;DHT22;21190;58.750;17.004;2023-05-27T14:37:09;20.30;92.50
34985;DHT22;21190;58.750;17.004;2023-05-27T14:39:36;20.30;92.50
34985;DHT22;21190;58.750;17.004;2023-05-27T14:42:03;20.40;92.50
34985;DHT22;21190;58.750;17.004;2023-05-27T14:44:33;20.40;92.30
34985;DHT22;21190;58.750;17.004;2023-05-27T14:47:00;20.50;93.10
34985;DHT22;21190;58.750;17.004;2023-05-27T14:49:27;20.60;92.00
34985;DHT22;21190;58.750;17.004;2023-05-27T14:51:54;20.60;92.00
34985;DHT22;21190;58.750;17.004;2023-05-27T14:54:21;20.60;92.00
34985;DHT22;21190;58.750;17.004;2023-05-27T14:56:48;20.50;91.60
34985;DHT22;21190;58.750;17.004;2023-05-27T14:59:15;20.50;92.50
34985;DHT22;21190;58.750;17.004;2023-05-27T15:01:42;20.50;92.30
34985;DHT22;21190;58.750;17.004;2023-05-27T15:04:10;20.50;92.10
34985;DHT22;21190;58.750;17.004;2023-05-27T15:06:37;20.50;92.10
34985;DHT22;21190;58.750;17.004;2023-05-27T15:09:04;20.50;91.80
34985;DHT22;21190;58.750;17.004;2023-05-27T15:11:31;20.60;92.00
34985;DHT22;21190;58.750;17.004;2023-05-27T15:13:57;20.70;91.90
34985;DHT22;21190;58.750;17.004;2023-05-27T15:16:26;20.60;92.40
34985;DHT22;21190;58.750;17.004;2023-05-27T15:18:54;20.50;92.40
34985;DHT22;21190;58.750;17.004;2023-05-27T15:21:22;20.40;92.10
34985;DHT22;21190;58.750;17.004;2023-05-27T15:23:49;20.50;92.10
34985;DHT22;21190;58.750;17.004;2023-05-27T15:26:16;20.20;91.90
34985;DHT22;21190;58.750;17.004;2023-05-27T15:28:43;20.30;92.50
34985;DHT22;21190;58.750;17.004;2023-05-27T15:31:10;20.50;92.50